sensor_id;sensor_type;location;lat;lon;timestamp;P1;durP1;ratioP1;P2;durP2;ratioP2
23682;SDS011;24897;53.514;10.482;2022-10-31T00:01:36;56.00;;;42.40;;
23682;SDS011;24897;53.514;10.482;2022-10-31T00:04:20;56.53;;;42.70;;
23682;SDS011;24897;53.514;10.482;2022-10-31T00:07:05;58.83;;;43.43;;
23682;SDS011;24897;53.514;10.482;2022-10-31T00:09:49;56.67;;;41.17;;
23682;SDS011;24897;53.514;10.482;2022-10-31T00:12:33;61.13;;;43.20;;
23682;SDS011;24897;53.514;10.482;2022-10-31T00:15:17;60.83;;;43.03;;
23682;SDS011;24897;53.514;10.482;2022-10-31T00:18:01;63.20;;;43.97;;
23682;SDS011;24897;53.514;10.482;2022-10-31T00:20:47;62.97;;;45.63;;
23682;SDS011;24897;53.514;10.482;2022-10-31T00:23:31;63.10;;;45.77;;
23682;SDS011;24897;53.514;10.482;2022-10-31T00:26:15;64.67;;;45.80;;
23682;SDS011;24897;53.514;10.482;2022-10-31T00:29:00;63.03;;;44.90;;
23682;SDS011;24897;53.514;10.482;2022-10-31T00:31:44;58.67;;;41.87;;
23682;SDS011;24897;53.514;10.482;2022-10-31T00:34:28;71.37;;;48.23;;
23682;SDS011;24897;53.514;10.482;2022-10-31T00:37:12;68.13;;;47.43;;
23682;SDS011;24897;53.514;10.482;2022-10-31T00:39:56;69.73;;;48.30;;
23682;SDS011;24897;53.514;10.482;2022-10-31T00:42:40;66.47;;;45.83;;
23682;SDS011;24897;53.514;10.482;2022-10-31T00:45:25;61.37;;;45.53;;
23682;SDS011;24897;53.514;10.482;2022-10-31T00:48:09;62.53;;;45.03;;
23682;SDS011;24897;53.514;10.482;2022-10-31T00:50:54;68.73;;;46.97;;
23682;SDS011;24897;53.514;10.482;2022-10-31T00:53:39;59.10;;;43.40;;
23682;SDS011;24897;53.514;10.482;2022-10-31T00:56:23;66.57;;;47.57;;
23682;SDS011;24897;53.514;10.482;2022-10-31T00:59:07;67.97;;;47.43;;
23682;SDS011;24897;53.514;10.482;2022-10-31T01:01:51;64.10;;;46.03;;
23682;SDS011;24897;53.514;10.482;2022-10-31T01:04:35;70.63;;;47.47;;
23682;SDS011;24897;53.514;10.482;2022-10-31T01:07:19;65.40;;;46.73;;
23682;SDS011;24897;53.514;10.482;2022-10-31T01:10:03;63.93;;;47.83;;
23682;SDS011;24897;53.514;10.482;2022-10-31T01:12:49;75.93;;;49.97;;
23682;SDS011;24897;53.514;10.482;2022-10-31T01:15:33;74.23;;;50.47;;
23682;SDS011;24897;53.514;10.482;2022-10-31T01:18:17;74.30;;;50.13;;
23682;SDS011;24897;53.514;10.482;2022-10-31T01:21:02;65.63;;;44.30;;
23682;SDS011;24897;53.514;10.482;2022-10-31T01:23:55;58.07;;;42.93;;
23682;SDS011;24897;53.514;10.482;2022-10-31T01:26:40;71.80;;;49.43;;
23682;SDS011;24897;53.514;10.482;2022-10-31T01:29:24;63.83;;;46.10;;
23682;SDS011;24897;53.514;10.482;2022-10-31T01:32:08;58.27;;;43.47;;
23682;SDS011;24897;53.514;10.482;2022-10-31T01:34:52;60.63;;;45.23;;
23682;SDS011;24897;53.514;10.482;2022-10-31T01:37:36;59.20;;;42.97;;
23682;SDS011;24897;53.514;10.482;2022-10-31T01:40:20;53.03;;;42.33;;
23682;SDS011;24897;53.514;10.482;2022-10-31T01:43:04;57.73;;;42.80;;
23682;SDS011;24897;53.514;10.482;2022-10-31T01:45:52;59.27;;;43.70;;
23682;SDS011;24897;53.514;10.482;2022-10-31T01:48:38;61.77;;;44.43;;
23682;SDS011;24897;53.514;10.482;2022-10-31T01:51:26;65.43;;;47.40;;
23682;SDS011;24897;53.514;10.482;2022-10-31T01:54:14;66.03;;;46.73;;
23682;SDS011;24897;53.514;10.482;2022-10-31T01:57:03;83.73;;;53.43;;
23682;SDS011;24897;53.514;10.482;2022-10-31T01:59:53;75.20;;;50.53;;
23682;SDS011;24897;53.514;10.482;2022-10-31T02:02:41;75.80;;;51.87;;
23682;SDS011;24897;53.514;10.482;2022-10-31T02:05:27;79.77;;;52.77;;
23682;SDS011;24897;53.514;10.482;2022-10-31T02:08:21;85.03;;;53.17;;
23682;SDS011;24897;53.514;10.482;2022-10-31T02:11:09;77.60;;;51.70;;
23682;SDS011;24897;53.514;10.482;2022-10-31T02:13:54;83.80;;;57.40;;
23682;SDS011;24897;53.514;10.482;2022-10-31T02:16:39;85.87;;;55.63;;
23682;SDS011;24897;53.514;10.482;2022-10-31T02:19:29;80.00;;;52.63;;
23682;SDS011;24897;53.514;10.482;2022-10-31T02:22:43;97.33;;;60.47;;
23682;SDS011;24897;53.514;10.482;2022-10-31T02:35:21;88.47;;;57.57;;
23682;SDS011;24897;53.514;10.482;2022-10-31T02:47:22;94.00;;;59.10;;
23682;SDS011;24897;53.514;10.482;2022-10-31T02:50:17;85.27;;;56.30;;
23682;SDS011;24897;53.514;10.482;2022-10-31T02:53:04;96.47;;;61.47;;
23682;SDS011;24897;53.514;10.482;2022-10-31T02:55:51;81.90;;;55.50;;
23682;SDS011;24897;53.514;10.482;2022-10-31T02:58:49;90.43;;;58.80;;
23682;SDS011;24897;53.514;10.482;2022-10-31T03:11:11;124.73;;;70.77;;
23682;SDS011;24897;53.514;10.482;2022-10-31T03:13:57;110.27;;;65.80;;
23682;SDS011;24897;53.514;10.482;2022-10-31T03:16:50;121.33;;;73.40;;
23682;SDS011;24897;53.514;10.482;2022-10-31T03:19:39;115.27;;;68.77;;
23682;SDS011;24897;53.514;10.482;2022-10-31T03:22:26;115.73;;;70.07;;
23682;SDS011;24897;53.514;10.482;2022-10-31T03:25:13;111.87;;;68.47;;
23682;SDS011;24897;53.514;10.482;2022-10-31T03:27:58;126.97;;;73.83;;
23682;SDS011;24897;53.514;10.482;2022-10-31T03:30:45;146.50;;;81.43;;
23682;SDS011;24897;53.514;10.482;2022-10-31T03:33:32;154.57;;;78.03;;
23682;SDS011;24897;53.514;10.482;2022-10-31T03:36:20;137.97;;;75.10;;
23682;SDS011;24897;53.514;10.482;2022-10-31T03:39:06;140.70;;;76.60;;
23682;SDS011;24897;53.514;10.482;2022-10-31T03:41:57;125.63;;;74.23;;
23682;SDS011;24897;53.514;10.482;2022-10-31T03:44:46;144.37;;;76.40;;
23682;SDS011;24897;53.514;10.482;2022-10-31T03:47:36;116.97;;;70.50;;
23682;SDS011;24897;53.514;10.482;2022-10-31T03:50:23;148.97;;;79.27;;
23682;SDS011;24897;53.514;10.482;2022-10-31T03:53:22;142.20;;;77.10;;
23682;SDS011;24897;53.514;10.482;2022-10-31T03:56:17;136.23;;;77.20;;
23682;SDS011;24897;53.514;10.482;2022-10-31T03:59:09;133.10;;;76.33;;
23682;SDS011;24897;53.514;10.482;2022-10-31T04:02:00;148.67;;;81.30;;
23682;SDS011;24897;53.514;10.482;2022-10-31T04:04:49;162.03;;;85.47;;
23682;SDS011;24897;53.514;10.482;2022-10-31T04:07:36;152.47;;;81.17;;
23682;SDS011;24897;53.514;10.482;2022-10-31T04:10:25;154.30;;;83.53;;
23682;SDS011;24897;53.514;10.482;2022-10-31T04:13:11;157.87;;;85.10;;
23682;SDS011;24897;53.514;10.482;2022-10-31T04:15:58;153.47;;;84.20;;
23682;SDS011;24897;53.514;10.482;2022-10-31T04:18:43;135.23;;;76.77;;
23682;SDS011;24897;53.514;10.482;2022-10-31T04:21:28;158.37;;;83.87;;
23682;SDS011;24897;53.514;10.482;2022-10-31T04:24:13;155.70;;;82.70;;
23682;SDS011;24897;53.514;10.482;2022-10-31T04:26:57;163.10;;;85.00;;
23682;SDS011;24897;53.514;10.482;2022-10-31T04:29:41;149.90;;;81.90;;
23682;SDS011;24897;53.514;10.482;2022-10-31T04:32:25;172.63;;;91.13;;
23682;SDS011;24897;53.514;10.482;2022-10-31T04:35:10;151.30;;;83.47;;
23682;SDS011;24897;53.514;10.482;2022-10-31T04:37:54;176.00;;;89.00;;
23682;SDS011;24897;53.514;10.482;2022-10-31T04:40:38;162.47;;;86.17;;
23682;SDS011;24897;53.514;10.482;2022-10-31T04:43:22;105.47;;;68.70;;
23682;SDS011;24897;53.514;10.482;2022-10-31T04:46:06;109.60;;;71.90;;
23682;SDS011;24897;53.514;10.482;2022-10-31T04:48:50;193.30;;;95.27;;
23682;SDS011;24897;53.514;10.482;2022-10-31T04:51:35;148.17;;;80.77;;
23682;SDS011;24897;53.514;10.482;2022-10-31T04:54:19;143.27;;;77.47;;
23682;SDS011;24897;53.514;10.482;2022-10-31T04:57:03;136.20;;;75.93;;
23682;SDS011;24897;53.514;10.482;2022-10-31T04:59:47;128.93;;;74.20;;
23682;SDS011;24897;53.514;10.482;2022-10-31T05:02:31;136.70;;;77.40;;
23682;SDS011;24897;53.514;10.482;2022-10-31T05:05:16;173.67;;;85.13;;
23682;SDS011;24897;53.514;10.482;2022-10-31T05:08:02;200.03;;;89.87;;
23682;SDS011;24897;53.514;10.482;2022-10-31T05:10:46;178.93;;;88.50;;
23682;SDS011;24897;53.514;10.482;2022-10-31T05:13:30;172.10;;;82.70;;
23682;SDS011;24897;53.514;10.482;2022-10-31T05:16:15;195.77;;;90.77;;
23682;SDS011;24897;53.514;10.482;2022-10-31T05:18:59;164.13;;;80.70;;
23682;SDS011;24897;53.514;10.482;2022-10-31T05:21:43;192.23;;;88.57;;
23682;SDS011;24897;53.514;10.482;2022-10-31T05:24:27;173.10;;;81.70;;
23682;SDS011;24897;53.514;10.482;2022-10-31T05:27:11;137.80;;;73.73;;
23682;SDS011;24897;53.514;10.482;2022-10-31T05:29:55;126.67;;;72.27;;
23682;SDS011;24897;53.514;10.482;2022-10-31T05:32:40;198.03;;;83.90;;
23682;SDS011;24897;53.514;10.482;2022-10-31T05:35:26;210.07;;;90.80;;
23682;SDS011;24897;53.514;10.482;2022-10-31T05:38:12;186.77;;;87.80;;
23682;SDS011;24897;53.514;10.482;2022-10-31T05:40:56;117.33;;;71.30;;
23682;SDS011;24897;53.514;10.482;2022-10-31T05:43:45;209.50;;;91.43;;
23682;SDS011;24897;53.514;10.482;2022-10-31T05:46:29;166.27;;;81.87;;
23682;SDS011;24897;53.514;10.482;2022-10-31T05:49:13;185.77;;;87.20;;
23682;SDS011;24897;53.514;10.482;2022-10-31T05:51:57;104.37;;;63.57;;
23682;SDS011;24897;53.514;10.482;2022-10-31T05:54:41;225.13;;;89.83;;
23682;SDS011;24897;53.514;10.482;2022-10-31T05:57:25;134.00;;;73.47;;
23682;SDS011;24897;53.514;10.482;2022-10-31T06:00:10;119.97;;;67.50;;
23682;SDS011;24897;53.514;10.482;2022-10-31T06:03:01;150.90;;;73.47;;
23682;SDS011;24897;53.514;10.482;2022-10-31T06:05:48;115.67;;;65.50;;
23682;SDS011;24897;53.514;10.482;2022-10-31T06:08:32;172.57;;;76.83;;
23682;SDS011;24897;53.514;10.482;2022-10-31T06:11:16;150.80;;;73.70;;
23682;SDS011;24897;53.514;10.482;2022-10-31T06:14:00;210.00;;;84.07;;
23682;SDS011;24897;53.514;10.482;2022-10-31T06:16:44;156.57;;;72.57;;
23682;SDS011;24897;53.514;10.482;2022-10-31T06:19:29;187.00;;;79.53;;
23682;SDS011;24897;53.514;10.482;2022-10-31T06:22:13;195.37;;;80.10;;
23682;SDS011;24897;53.514;10.482;2022-10-31T06:24:57;159.90;;;72.00;;
23682;SDS011;24897;53.514;10.482;2022-10-31T06:27:42;183.70;;;74.87;;
23682;SDS011;24897;53.514;10.482;2022-10-31T06:30:26;260.87;;;87.00;;
23682;SDS011;24897;53.514;10.482;2022-10-31T06:33:10;266.23;;;88.10;;
23682;SDS011;24897;53.514;10.482;2022-10-31T06:35:54;262.10;;;82.83;;
23682;SDS011;24897;53.514;10.482;2022-10-31T06:38:39;134.97;;;64.97;;
23682;SDS011;24897;53.514;10.482;2022-10-31T06:41:23;201.40;;;75.87;;
23682;SDS011;24897;53.514;10.482;2022-10-31T06:44:07;327.50;;;92.47;;
23682;SDS011;24897;53.514;10.482;2022-10-31T06:46:52;231.83;;;78.87;;
23682;SDS011;24897;53.514;10.482;2022-10-31T06:49:36;202.27;;;74.13;;
23682;SDS011;24897;53.514;10.482;2022-10-31T06:52:20;229.27;;;77.23;;
23682;SDS011;24897;53.514;10.482;2022-10-31T06:55:06;193.27;;;69.00;;
23682;SDS011;24897;53.514;10.482;2022-10-31T06:57:54;186.23;;;69.53;;
23682;SDS011;24897;53.514;10.482;2022-10-31T07:00:40;295.63;;;81.67;;
23682;SDS011;24897;53.514;10.482;2022-10-31T07:03:23;156.50;;;65.30;;
23682;SDS011;24897;53.514;10.482;2022-10-31T07:06:07;272.47;;;77.20;;
23682;SDS011;24897;53.514;10.482;2022-10-31T07:08:51;188.50;;;68.33;;
23682;SDS011;24897;53.514;10.482;2022-10-31T07:11:36;180.70;;;65.30;;
23682;SDS011;24897;53.514;10.482;2022-10-31T07:14:20;167.30;;;65.23;;
23682;SDS011;24897;53.514;10.482;2022-10-31T07:17:04;241.77;;;73.73;;
23682;SDS011;24897;53.514;10.482;2022-10-31T07:19:48;224.53;;;72.20;;
23682;SDS011;24897;53.514;10.482;2022-10-31T07:22:33;233.43;;;73.67;;
23682;SDS011;24897;53.514;10.482;2022-10-31T07:25:18;159.27;;;62.93;;
23682;SDS011;24897;53.514;10.482;2022-10-31T07:28:02;200.50;;;67.60;;
23682;SDS011;24897;53.514;10.482;2022-10-31T07:30:51;190.40;;;65.63;;
23682;SDS011;24897;53.514;10.482;2022-10-31T07:33:36;220.13;;;68.73;;
23682;SDS011;24897;53.514;10.482;2022-10-31T07:36:20;112.17;;;52.27;;
23682;SDS011;24897;53.514;10.482;2022-10-31T07:39:05;185.77;;;63.93;;
23682;SDS011;24897;53.514;10.482;2022-10-31T07:41:49;190.50;;;61.97;;
23682;SDS011;24897;53.514;10.482;2022-10-31T07:44:33;116.03;;;54.07;;
23682;SDS011;24897;53.514;10.482;2022-10-31T07:47:17;114.23;;;50.63;;
23682;SDS011;24897;53.514;10.482;2022-10-31T07:50:01;100.80;;;48.53;;
23682;SDS011;24897;53.514;10.482;2022-10-31T07:52:45;96.13;;;47.07;;
23682;SDS011;24897;53.514;10.482;2022-10-31T07:55:29;97.03;;;49.80;;
23682;SDS011;24897;53.514;10.482;2022-10-31T07:58:15;157.27;;;57.73;;
23682;SDS011;24897;53.514;10.482;2022-10-31T08:01:00;172.20;;;59.83;;
23682;SDS011;24897;53.514;10.482;2022-10-31T08:03:44;140.00;;;55.97;;
23682;SDS011;24897;53.514;10.482;2022-10-31T08:06:28;105.37;;;49.30;;
23682;SDS011;24897;53.514;10.482;2022-10-31T08:09:12;94.47;;;47.80;;
23682;SDS011;24897;53.514;10.482;2022-10-31T08:11:56;88.67;;;47.50;;
23682;SDS011;24897;53.514;10.482;2022-10-31T08:14:40;106.10;;;50.97;;
23682;SDS011;24897;53.514;10.482;2022-10-31T08:17:24;88.63;;;46.90;;
23682;SDS011;24897;53.514;10.482;2022-10-31T08:20:08;84.23;;;46.53;;
23682;SDS011;24897;53.514;10.482;2022-10-31T08:22:57;128.60;;;52.53;;
23682;SDS011;24897;53.514;10.482;2022-10-31T08:25:42;139.40;;;55.70;;
23682;SDS011;24897;53.514;10.482;2022-10-31T08:28:26;102.67;;;48.53;;
23682;SDS011;24897;53.514;10.482;2022-10-31T08:31:10;78.90;;;43.57;;
23682;SDS011;24897;53.514;10.482;2022-10-31T08:33:54;101.47;;;49.17;;
23682;SDS011;24897;53.514;10.482;2022-10-31T08:36:38;111.77;;;50.30;;
23682;SDS011;24897;53.514;10.482;2022-10-31T08:39:22;90.73;;;47.27;;
23682;SDS011;24897;53.514;10.482;2022-10-31T08:42:06;106.37;;;49.30;;
23682;SDS011;24897;53.514;10.482;2022-10-31T08:44:50;77.17;;;44.53;;
23682;SDS011;24897;53.514;10.482;2022-10-31T08:47:34;74.53;;;44.13;;
23682;SDS011;24897;53.514;10.482;2022-10-31T08:50:19;117.20;;;51.20;;
23682;SDS011;24897;53.514;10.482;2022-10-31T08:53:07;87.03;;;46.80;;
23682;SDS011;24897;53.514;10.482;2022-10-31T08:55:54;85.17;;;48.10;;
23682;SDS011;24897;53.514;10.482;2022-10-31T08:58:39;87.73;;;46.33;;
23682;SDS011;24897;53.514;10.482;2022-10-31T09:01:23;101.50;;;49.93;;
23682;SDS011;24897;53.514;10.482;2022-10-31T09:04:07;103.80;;;50.13;;
23682;SDS011;24897;53.514;10.482;2022-10-31T09:06:51;77.30;;;46.23;;
23682;SDS011;24897;53.514;10.482;2022-10-31T09:09:36;72.17;;;45.20;;
23682;SDS011;24897;53.514;10.482;2022-10-31T09:12:20;72.33;;;46.10;;
23682;SDS011;24897;53.514;10.482;2022-10-31T09:15:05;69.07;;;44.37;;
23682;SDS011;24897;53.514;10.482;2022-10-31T09:17:50;69.90;;;45.10;;
23682;SDS011;24897;53.514;10.482;2022-10-31T09:20:34;87.07;;;49.00;;
23682;SDS011;24897;53.514;10.482;2022-10-31T09:23:21;69.97;;;45.40;;
23682;SDS011;24897;53.514;10.482;2022-10-31T09:26:06;73.13;;;45.63;;
23682;SDS011;24897;53.514;10.482;2022-10-31T09:28:50;91.30;;;48.97;;
23682;SDS011;24897;53.514;10.482;2022-10-31T09:31:34;63.10;;;43.17;;
23682;SDS011;24897;53.514;10.482;2022-10-31T09:34:19;76.43;;;45.93;;
23682;SDS011;24897;53.514;10.482;2022-10-31T09:37:02;79.00;;;46.97;;
23682;SDS011;24897;53.514;10.482;2022-10-31T09:39:47;83.17;;;46.43;;
23682;SDS011;24897;53.514;10.482;2022-10-31T09:42:35;61.33;;;41.07;;
23682;SDS011;24897;53.514;10.482;2022-10-31T09:45:50;69.43;;;44.93;;
23682;SDS011;24897;53.514;10.482;2022-10-31T09:54:47;62.30;;;42.17;;
23682;SDS011;24897;53.514;10.482;2022-10-31T09:57:34;62.43;;;42.13;;
23682;SDS011;24897;53.514;10.482;2022-10-31T10:00:20;58.70;;;40.07;;
23682;SDS011;24897;53.514;10.482;2022-10-31T10:03:28;57.87;;;40.93;;
23682;SDS011;24897;53.514;10.482;2022-10-31T10:06:27;60.37;;;41.53;;
23682;SDS011;24897;53.514;10.482;2022-10-31T10:09:24;60.73;;;40.97;;
23682;SDS011;24897;53.514;10.482;2022-10-31T10:12:16;60.30;;;42.07;;
23682;SDS011;24897;53.514;10.482;2022-10-31T10:22:00;52.90;;;40.13;;
23682;SDS011;24897;53.514;10.482;2022-10-31T10:31:08;51.30;;;38.53;;
23682;SDS011;24897;53.514;10.482;2022-10-31T10:34:02;52.80;;;39.23;;
23682;SDS011;24897;53.514;10.482;2022-10-31T10:40:17;48.87;;;36.90;;
23682;SDS011;24897;53.514;10.482;2022-10-31T10:49:15;55.00;;;40.77;;
23682;SDS011;24897;53.514;10.482;2022-10-31T10:52:13;49.60;;;38.53;;
23682;SDS011;24897;53.514;10.482;2022-10-31T10:58:11;52.63;;;39.13;;
23682;SDS011;24897;53.514;10.482;2022-10-31T11:00:55;45.67;;;38.33;;
23682;SDS011;24897;53.514;10.482;2022-10-31T11:03:40;46.13;;;38.03;;
23682;SDS011;24897;53.514;10.482;2022-10-31T11:06:25;50.70;;;39.60;;
23682;SDS011;24897;53.514;10.482;2022-10-31T11:09:09;43.80;;;37.00;;
23682;SDS011;24897;53.514;10.482;2022-10-31T11:11:54;45.47;;;38.27;;
23682;SDS011;24897;53.514;10.482;2022-10-31T11:14:44;46.60;;;38.80;;
23682;SDS011;24897;53.514;10.482;2022-10-31T11:17:46;49.77;;;41.60;;
23682;SDS011;24897;53.514;10.482;2022-10-31T11:20:35;48.90;;;40.57;;
23682;SDS011;24897;53.514;10.482;2022-10-31T11:23:21;50.07;;;40.70;;
23682;SDS011;24897;53.514;10.482;2022-10-31T11:26:14;46.40;;;38.20;;
23682;SDS011;24897;53.514;10.482;2022-10-31T11:29:03;43.97;;;38.70;;
23682;SDS011;24897;53.514;10.482;2022-10-31T11:31:51;50.97;;;40.53;;
23682;SDS011;24897;53.514;10.482;2022-10-31T11:34:43;46.33;;;39.17;;
23682;SDS011;24897;53.514;10.482;2022-10-31T11:37:34;47.60;;;39.00;;
23682;SDS011;24897;53.514;10.482;2022-10-31T11:40:25;47.83;;;40.70;;
23682;SDS011;24897;53.514;10.482;2022-10-31T11:43:15;44.93;;;39.77;;
23682;SDS011;24897;53.514;10.482;2022-10-31T11:46:08;47.77;;;40.60;;
23682;SDS011;24897;53.514;10.482;2022-10-31T11:48:54;45.67;;;38.97;;
23682;SDS011;24897;53.514;10.482;2022-10-31T11:51:40;44.00;;;38.40;;
23682;SDS011;24897;53.514;10.482;2022-10-31T11:54:26;42.77;;;38.17;;
23682;SDS011;24897;53.514;10.482;2022-10-31T11:57:26;42.27;;;37.67;;
23682;SDS011;24897;53.514;10.482;2022-10-31T12:00:20;42.57;;;37.93;;
23682;SDS011;24897;53.514;10.482;2022-10-31T12:06:32;42.47;;;37.97;;
23682;SDS011;24897;53.514;10.482;2022-10-31T12:09:28;43.03;;;38.43;;
23682;SDS011;24897;53.514;10.482;2022-10-31T12:12:33;43.93;;;39.33;;
23682;SDS011;24897;53.514;10.482;2022-10-31T12:18:21;42.53;;;38.13;;
23682;SDS011;24897;53.514;10.482;2022-10-31T12:37:30;41.63;;;37.53;;
23682;SDS011;24897;53.514;10.482;2022-10-31T12:54:05;42.83;;;38.33;;
23682;SDS011;24897;53.514;10.482;2022-10-31T13:00:16;41.67;;;37.37;;
23682;SDS011;24897;53.514;10.482;2022-10-31T13:03:18;44.10;;;39.47;;
23682;SDS011;24897;53.514;10.482;2022-10-31T13:06:05;43.27;;;38.73;;
23682;SDS011;24897;53.514;10.482;2022-10-31T13:08:55;42.30;;;38.00;;
23682;SDS011;24897;53.514;10.482;2022-10-31T13:11:51;45.07;;;40.47;;
23682;SDS011;24897;53.514;10.482;2022-10-31T13:14:42;45.20;;;40.37;;
23682;SDS011;24897;53.514;10.482;2022-10-31T13:17:41;46.07;;;41.27;;
23682;SDS011;24897;53.514;10.482;2022-10-31T13:20:32;48.77;;;43.57;;
23682;SDS011;24897;53.514;10.482;2022-10-31T13:32:12;48.73;;;42.93;;
23682;SDS011;24897;53.514;10.482;2022-10-31T13:34:56;50.20;;;44.17;;
23682;SDS011;24897;53.514;10.482;2022-10-31T13:37:48;50.57;;;42.50;;
23682;SDS011;24897;53.514;10.482;2022-10-31T13:40:56;49.40;;;42.70;;
23682;SDS011;24897;53.514;10.482;2022-10-31T13:46:41;46.17;;;40.37;;
23682;SDS011;24897;53.514;10.482;2022-10-31T13:52:15;48.67;;;40.73;;
23682;SDS011;24897;53.514;10.482;2022-10-31T13:55:34;45.87;;;40.87;;
23682;SDS011;24897;53.514;10.482;2022-10-31T13:58:32;43.90;;;39.03;;
23682;SDS011;24897;53.514;10.482;2022-10-31T14:01:21;50.77;;;42.30;;
23682;SDS011;24897;53.514;10.482;2022-10-31T14:04:07;47.60;;;41.67;;
23682;SDS011;24897;53.514;10.482;2022-10-31T14:07:13;53.43;;;43.80;;
23682;SDS011;24897;53.514;10.482;2022-10-31T14:10:06;54.20;;;45.73;;
23682;SDS011;24897;53.514;10.482;2022-10-31T14:16:20;52.40;;;42.13;;
23682;SDS011;24897;53.514;10.482;2022-10-31T14:19:19;48.40;;;40.77;;
23682;SDS011;24897;53.514;10.482;2022-10-31T14:22:18;53.40;;;41.70;;
23682;SDS011;24897;53.514;10.482;2022-10-31T14:25:27;56.20;;;44.23;;
23682;SDS011;24897;53.514;10.482;2022-10-31T14:31:21;53.83;;;41.87;;
23682;SDS011;24897;53.514;10.482;2022-10-31T14:34:33;58.70;;;43.63;;
23682;SDS011;24897;53.514;10.482;2022-10-31T14:53:13;63.90;;;44.07;;
23682;SDS011;24897;53.514;10.482;2022-10-31T14:56:09;73.40;;;46.97;;
23682;SDS011;24897;53.514;10.482;2022-10-31T14:58:56;73.27;;;47.50;;
23682;SDS011;24897;53.514;10.482;2022-10-31T15:01:56;72.30;;;45.90;;
23682;SDS011;24897;53.514;10.482;2022-10-31T15:04:43;62.87;;;42.83;;
23682;SDS011;24897;53.514;10.482;2022-10-31T15:07:29;71.83;;;46.67;;
23682;SDS011;24897;53.514;10.482;2022-10-31T15:10:24;78.97;;;45.00;;
23682;SDS011;24897;53.514;10.482;2022-10-31T15:13:20;78.37;;;46.53;;
23682;SDS011;24897;53.514;10.482;2022-10-31T15:16:07;84.27;;;48.30;;
23682;SDS011;24897;53.514;10.482;2022-10-31T15:19:14;74.00;;;45.33;;
23682;SDS011;24897;53.514;10.482;2022-10-31T15:22:04;87.43;;;47.60;;
23682;SDS011;24897;53.514;10.482;2022-10-31T15:24:49;95.50;;;49.70;;
23682;SDS011;24897;53.514;10.482;2022-10-31T15:27:40;91.27;;;50.00;;
23682;SDS011;24897;53.514;10.482;2022-10-31T15:30:25;89.93;;;47.63;;
23682;SDS011;24897;53.514;10.482;2022-10-31T15:33:21;98.20;;;49.90;;
23682;SDS011;24897;53.514;10.482;2022-10-31T15:36:21;86.50;;;47.23;;
23682;SDS011;24897;53.514;10.482;2022-10-31T15:39:10;98.10;;;50.17;;
23682;SDS011;24897;53.514;10.482;2022-10-31T15:41:56;85.03;;;46.00;;
23682;SDS011;24897;53.514;10.482;2022-10-31T15:44:41;97.77;;;49.90;;
23682;SDS011;24897;53.514;10.482;2022-10-31T15:47:28;98.63;;;48.37;;
23682;SDS011;24897;53.514;10.482;2022-10-31T15:50:48;99.33;;;51.07;;
23682;SDS011;24897;53.514;10.482;2022-10-31T15:53:49;104.57;;;51.30;;
23682;SDS011;24897;53.514;10.482;2022-10-31T15:56:36;94.10;;;48.67;;
23682;SDS011;24897;53.514;10.482;2022-10-31T15:59:23;100.37;;;51.67;;
23682;SDS011;24897;53.514;10.482;2022-10-31T16:02:10;105.00;;;52.37;;
23682;SDS011;24897;53.514;10.482;2022-10-31T16:04:59;101.37;;;52.60;;
23682;SDS011;24897;53.514;10.482;2022-10-31T16:07:48;96.67;;;50.27;;
23682;SDS011;24897;53.514;10.482;2022-10-31T16:10:34;91.57;;;48.97;;
23682;SDS011;24897;53.514;10.482;2022-10-31T16:13:28;88.40;;;49.80;;
23682;SDS011;24897;53.514;10.482;2022-10-31T16:16:15;84.30;;;48.00;;
23682;SDS011;24897;53.514;10.482;2022-10-31T16:19:01;85.87;;;47.67;;
23682;SDS011;24897;53.514;10.482;2022-10-31T16:21:50;79.00;;;46.80;;
23682;SDS011;24897;53.514;10.482;2022-10-31T16:24:44;85.43;;;49.37;;
23682;SDS011;24897;53.514;10.482;2022-10-31T16:27:32;81.23;;;47.60;;
23682;SDS011;24897;53.514;10.482;2022-10-31T16:33:43;70.97;;;45.23;;
23682;SDS011;24897;53.514;10.482;2022-10-31T16:39:11;73.03;;;47.83;;
23682;SDS011;24897;53.514;10.482;2022-10-31T16:41:57;70.27;;;47.23;;
23682;SDS011;24897;53.514;10.482;2022-10-31T16:44:41;71.27;;;47.17;;
23682;SDS011;24897;53.514;10.482;2022-10-31T16:47:28;69.20;;;46.37;;
23682;SDS011;24897;53.514;10.482;2022-10-31T16:52:59;68.67;;;45.67;;
23682;SDS011;24897;53.514;10.482;2022-10-31T16:55:53;73.50;;;48.93;;
23682;SDS011;24897;53.514;10.482;2022-10-31T16:58:39;78.90;;;48.83;;
23682;SDS011;24897;53.514;10.482;2022-10-31T17:01:23;79.53;;;48.50;;
23682;SDS011;24897;53.514;10.482;2022-10-31T17:04:08;70.47;;;46.20;;
23682;SDS011;24897;53.514;10.482;2022-10-31T17:06:58;75.83;;;48.57;;
23682;SDS011;24897;53.514;10.482;2022-10-31T17:09:42;68.30;;;45.70;;
23682;SDS011;24897;53.514;10.482;2022-10-31T17:12:26;70.53;;;46.53;;
23682;SDS011;24897;53.514;10.482;2022-10-31T17:15:15;69.50;;;46.13;;
23682;SDS011;24897;53.514;10.482;2022-10-31T17:18:02;82.73;;;49.13;;
23682;SDS011;24897;53.514;10.482;2022-10-31T17:20:46;70.37;;;45.90;;
23682;SDS011;24897;53.514;10.482;2022-10-31T17:23:31;75.23;;;48.13;;
23682;SDS011;24897;53.514;10.482;2022-10-31T17:26:16;71.20;;;46.33;;
23682;SDS011;24897;53.514;10.482;2022-10-31T17:29:01;67.43;;;45.93;;
23682;SDS011;24897;53.514;10.482;2022-10-31T17:31:45;69.90;;;47.30;;
23682;SDS011;24897;53.514;10.482;2022-10-31T17:34:30;75.37;;;49.60;;
23682;SDS011;24897;53.514;10.482;2022-10-31T17:37:14;83.50;;;59.67;;
23682;SDS011;24897;53.514;10.482;2022-10-31T17:39:59;75.73;;;50.40;;
23682;SDS011;24897;53.514;10.482;2022-10-31T17:42:47;71.33;;;46.83;;
23682;SDS011;24897;53.514;10.482;2022-10-31T17:45:33;71.73;;;51.97;;
23682;SDS011;24897;53.514;10.482;2022-10-31T17:48:17;74.80;;;52.57;;
23682;SDS011;24897;53.514;10.482;2022-10-31T17:51:03;83.83;;;60.10;;
23682;SDS011;24897;53.514;10.482;2022-10-31T17:53:49;77.50;;;50.97;;
23682;SDS011;24897;53.514;10.482;2022-10-31T17:56:33;95.73;;;65.67;;
23682;SDS011;24897;53.514;10.482;2022-10-31T17:59:18;79.77;;;54.60;;
23682;SDS011;24897;53.514;10.482;2022-10-31T18:02:03;70.80;;;51.30;;
23682;SDS011;24897;53.514;10.482;2022-10-31T18:04:51;76.33;;;51.83;;
23682;SDS011;24897;53.514;10.482;2022-10-31T18:07:36;77.27;;;51.30;;
23682;SDS011;24897;53.514;10.482;2022-10-31T18:10:20;78.57;;;50.53;;
23682;SDS011;24897;53.514;10.482;2022-10-31T18:13:04;74.73;;;50.90;;
23682;SDS011;24897;53.514;10.482;2022-10-31T18:15:48;77.90;;;50.53;;
23682;SDS011;24897;53.514;10.482;2022-10-31T18:18:33;82.53;;;53.20;;
23682;SDS011;24897;53.514;10.482;2022-10-31T18:21:17;78.67;;;51.83;;
23682;SDS011;24897;53.514;10.482;2022-10-31T18:24:02;77.13;;;50.77;;
23682;SDS011;24897;53.514;10.482;2022-10-31T18:26:47;79.33;;;53.53;;